RoSS Sea — WDE3122 — position and weather

sailwx.info

Track history (hours):
 
Tides and Currents Weather Stations Pressure Air Temp Water Temp Dewpoint Dewpoint Depression Visibility Wind Speed Wind Dir Waves Ship Positions

RoSS Sea

Owner: Kirby Inland Marine, LP, Houston, TX. More information available from US FCC via Universal Licensing System and Coast Guard Vessel Documentation Center.

Last reported at 2017-Mar-31 00:33 UTC. Time now 2017-Mar-31 00:38 UTC.
Position N 39°32' W 075°45'.

Length 30 m; draft 5 m.

Type: Towing. MMSI: 367334360.

Date/timePositionNaut miles runAvg speedWind from/ knotsBaromVisibWave heightAir tempDewpointWater temp
2017-Mar-31 00:33N 39°32' W 075°45'8 7.5
2017-Mar-30 23:33N 39°33' W 075°36'7 6.9
2017-Mar-30 22:33N 39°40' W 075°32'10 9.6
2017-Mar-30 21:33N 39°48' W 075°26'8 8.2
2017-Mar-30 20:33N 39°51' W 075°16'2 1.7
2017-Mar-30 19:31N 39°51' W 075°14'0 0.0
2017-Mar-30 18:31N 39°51' W 075°14'0 0.0
2017-Mar-30 17:31N 39°51' W 075°14'0 0.0
2017-Mar-30 16:31N 39°51' W 075°14'0 0.0
2017-Mar-30 15:31N 39°51' W 075°14'0 0.0
2017-Mar-30 14:31N 39°51' W 075°14'0 0.0
2017-Mar-30 13:31N 39°51' W 075°14'0 0.0
2017-Mar-30 12:31N 39°51' W 075°14'0 0.0
2017-Mar-30 11:32N 39°51' W 075°14'0 0.0
2017-Mar-30 10:32N 39°51' W 075°14'0 0.0
2017-Mar-30 09:32N 39°51' W 075°14'0 0.0
2017-Mar-30 08:32N 39°51' W 075°14'0 0.0
2017-Mar-30 07:32N 39°51' W 075°14'0 0.0
2017-Mar-30 06:32N 39°51' W 075°14'0 0.0
2017-Mar-30 05:32N 39°51' W 075°14'0 0.0
2017-Mar-30 04:32N 39°51' W 075°14'3 2.8
2017-Mar-30 03:34N 39°53' W 075°11'0 0.1
2017-Mar-30 02:31N 39°53' W 075°11'0 0.0
2017-Mar-30 01:31N 39°53' W 075°11'0 0.0
2017-Mar-30 00:31N 39°53' W 075°11'0 0.0
2017-Mar-29 23:31N 39°53' W 075°11'0 0.0
2017-Mar-29 22:31N 39°53' W 075°11'0 0.0
2017-Mar-29 21:31N 39°53' W 075°11'0 0.0
2017-Mar-29 20:31N 39°53' W 075°11'0 0.0
2017-Mar-29 19:31N 39°53' W 075°11'0 0.0
2017-Mar-29 18:31N 39°53' W 075°11'0 0.0
2017-Mar-29 17:31N 39°53' W 075°11'0 0.0
2017-Mar-29 16:33N 39°53' W 075°11'0 0.1
2017-Mar-29 15:33N 39°53' W 075°11'0 0.1
2017-Mar-29 14:31N 39°53' W 075°11'0 0.0
2017-Mar-29 13:31N 39°53' W 075°11'0 0.0
2017-Mar-29 12:31N 39°53' W 075°11'2 2.4
2017-Mar-29 11:32N 39°54' W 075°08'0 0.0
2017-Mar-29 10:32N 39°54' W 075°08'0 0.0
2017-Mar-29 09:29N 39°54' W 075°08'0 0.0
2017-Mar-29 08:32N 39°54' W 075°08'0 0.0
2017-Mar-29 07:32N 39°54' W 075°08'0 0.0
2017-Mar-29 06:32N 39°54' W 075°08'0 0.0
2017-Mar-29 05:32N 39°54' W 075°08'0 0.0
2017-Mar-29 04:32N 39°54' W 075°08'0 0.0
2017-Mar-29 03:32N 39°54' W 075°08'0 0.0
2017-Mar-29 02:32N 39°54' W 075°08'0 0.0
2017-Mar-29 01:32N 39°54' W 075°08'2 2.0
2017-Mar-29 00:33N 39°53' W 075°10'3 3.0
2017-Mar-28 23:31N 39°51' W 075°14'0 0.0
2017-Mar-28 22:31N 39°51' W 075°14'0 0.0
2017-Mar-28 21:31N 39°51' W 075°14'0 0.0
2017-Mar-28 20:31N 39°51' W 075°14'0 0.0
2017-Mar-28 19:31N 39°51' W 075°14'0 0.0
2017-Mar-28 18:31N 39°51' W 075°14'0 0.0
2017-Mar-28 17:31N 39°51' W 075°14'0 0.0
2017-Mar-28 16:31N 39°51' W 075°14'0 0.0
2017-Mar-28 15:31N 39°51' W 075°14'0 0.0
2017-Mar-28 14:31N 39°51' W 075°14'0 0.0
2017-Mar-28 13:31N 39°51' W 075°14'0 0.0
2017-Mar-28 12:31N 39°51' W 075°14'0 0.0
2017-Mar-28 11:31N 39°51' W 075°14'0 0.0
2017-Mar-28 10:31N 39°51' W 075°14'0 0.0
2017-Mar-28 09:31N 39°51' W 075°14'0 0.0
2017-Mar-28 08:31N 39°51' W 075°14'0 0.0
2017-Mar-28 07:31N 39°51' W 075°14'0 0.3
2017-Mar-28 06:33N 39°52' W 075°14'1 0.7
2017-Mar-28 05:31N 39°52' W 075°13'0 0.0
2017-Mar-28 04:31N 39°52' W 075°13'0 0.0
2017-Mar-28 03:31N 39°52' W 075°13'1 0.9
2017-Mar-28 02:32N 39°51' W 075°14'4 3.9
2017-Mar-28 01:33N 39°53' W 075°09'1 1.3
2017-Mar-28 00:31N 39°54' W 075°08'0 0.0
2017-Mar-27 23:31N 39°54' W 075°08'0 0.0
2017-Mar-27 22:31N 39°54' W 075°08'0 0.0
2017-Mar-27 21:31N 39°54' W 075°08'0 0.0
2017-Mar-27 20:31N 39°54' W 075°08'0 0.0
2017-Mar-27 19:31N 39°54' W 075°08'0 0.0
2017-Mar-27 18:25N 39°54' W 075°08'0 0.0
2017-Mar-27 17:31N 39°54' W 075°08'0 0.0
2017-Mar-27 16:33N 39°54' W 075°08'0 0.0
2017-Mar-27 15:34N 39°54' W 075°08'1 1.4
2017-Mar-27 14:33N 39°53' W 075°09'4 3.7
2017-Mar-27 13:33N 39°51' W 075°14'0 0.0
2017-Mar-27 12:33N 39°51' W 075°14'0 0.0
2017-Mar-27 11:33N 39°51' W 075°14'0 0.0
2017-Mar-27 10:33N 39°51' W 075°14'0 0.0
2017-Mar-27 09:33N 39°51' W 075°14'0 0.0
2017-Mar-27 08:33N 39°51' W 075°14'0 0.0
2017-Mar-27 07:33N 39°51' W 075°14'0 0.0
2017-Mar-27 06:33N 39°51' W 075°14'0 0.0
2017-Mar-27 05:33N 39°51' W 075°14'0 0.0
2017-Mar-27 04:33N 39°51' W 075°14'0 0.0
2017-Mar-27 03:34N 39°51' W 075°14'0 0.0
2017-Mar-27 02:34N 39°51' W 075°14'0 0.0
2017-Mar-27 01:33N 39°51' W 075°14'7 6.8
2017-Mar-27 00:33N 39°50' W 075°22'9 8.7
2017-Mar-26 23:34N 39°43' W 075°30'8 7.8
2017-Mar-26 22:33N 39°36' W 075°34'3 2.8
2017-Mar-26 21:34N 39°34' W 075°35'7 7.3
2017-Mar-26 20:34N 39°32' W 075°44'6 6.3
2017-Mar-26 19:33N 39°32' W 075°52'7 6.7
2017-Mar-26 18:33N 39°27' W 075°59'7 6.7
2017-Mar-26 17:33N 39°23' W 076°06'31 6.8
2017-Mar-26 13:04N 38°56' W 076°24'  
2017-Mar-22 15:08N 39°24' W 076°02'2 4.2
2017-Mar-22 14:33N 39°26' W 076°00'1 1.5
2017-Mar-22 13:33N 39°27' W 075°59'8 8.4
2017-Mar-22 12:33N 39°32' W 075°50'6 5.7
2017-Mar-22 11:34N 39°33' W 075°43'7 7.4
2017-Mar-22 10:34N 39°34' W 075°33'5 4.8
2017-Mar-22 09:33N 39°39' W 075°33'7 6.6
2017-Mar-22 08:33N 39°45' W 075°29'8 7.7
2017-Mar-22 07:33N 39°50' W 075°22'6 6.4
2017-Mar-22 06:33N 39°51' W 075°14'0 0.0
2017-Mar-22 05:34N 39°51' W 075°14'0 0.0
2017-Mar-22 04:32N 39°51' W 075°14'0 0.0
2017-Mar-22 03:32N 39°51' W 075°14'0 0.0
2017-Mar-22 02:32N 39°51' W 075°14'0 0.0
2017-Mar-22 01:32N 39°51' W 075°14'0 0.0
2017-Mar-22 00:32N 39°51' W 075°14'0 0.0
2017-Mar-21 23:32N 39°51' W 075°14'0 0.0
2017-Mar-21 22:32N 39°51' W 075°14'0 0.0
2017-Mar-21 21:32N 39°51' W 075°14'0 0.0
2017-Mar-21 20:32N 39°51' W 075°14'0 0.0
2017-Mar-21 19:32N 39°51' W 075°14'  
Track history (hours):
 
Tides and Currents Weather Stations Pressure Air Temp Water Temp Dewpoint Dewpoint Depression Visibility Wind Speed Wind Dir Waves Ship Positions

RoSS Sea

Owner: Kirby Inland Marine, LP, Houston, TX. More information available from US FCC via Universal Licensing System and Coast Guard Vessel Documentation Center.

Last reported at 2017-Mar-31 00:33 UTC. Time now 2017-Mar-31 00:38 UTC.
Position N 39°32' W 075°45'.

Length 30 m; draft 5 m.

Type: Towing. MMSI: 367334360.

Date/timePositionNaut miles runAvg speedWind from/ knotsBaromVisibWave heightAir tempDewpointWater temp
2017-Mar-31 00:33N 39°32' W 075°45'8 7.5
2017-Mar-30 23:33N 39°33' W 075°36'7 6.9
2017-Mar-30 22:33N 39°40' W 075°32'10 9.6
2017-Mar-30 21:33N 39°48' W 075°26'8 8.2
2017-Mar-30 20:33N 39°51' W 075°16'2 1.7
2017-Mar-30 19:31N 39°51' W 075°14'0 0.0
2017-Mar-30 18:31N 39°51' W 075°14'0 0.0
2017-Mar-30 17:31N 39°51' W 075°14'0 0.0
2017-Mar-30 16:31N 39°51' W 075°14'0 0.0
2017-Mar-30 15:31N 39°51' W 075°14'0 0.0
2017-Mar-30 14:31N 39°51' W 075°14'0 0.0
2017-Mar-30 13:31N 39°51' W 075°14'0 0.0
2017-Mar-30 12:31N 39°51' W 075°14'0 0.0
2017-Mar-30 11:32N 39°51' W 075°14'0 0.0
2017-Mar-30 10:32N 39°51' W 075°14'0 0.0
2017-Mar-30 09:32N 39°51' W 075°14'0 0.0
2017-Mar-30 08:32N 39°51' W 075°14'0 0.0
2017-Mar-30 07:32N 39°51' W 075°14'0 0.0
2017-Mar-30 06:32N 39°51' W 075°14'0 0.0
2017-Mar-30 05:32N 39°51' W 075°14'0 0.0
2017-Mar-30 04:32N 39°51' W 075°14'3 2.8
2017-Mar-30 03:34N 39°53' W 075°11'0 0.1
2017-Mar-30 02:31N 39°53' W 075°11'0 0.0
2017-Mar-30 01:31N 39°53' W 075°11'0 0.0
2017-Mar-30 00:31N 39°53' W 075°11'0 0.0
2017-Mar-29 23:31N 39°53' W 075°11'0 0.0
2017-Mar-29 22:31N 39°53' W 075°11'0 0.0
2017-Mar-29 21:31N 39°53' W 075°11'0 0.0
2017-Mar-29 20:31N 39°53' W 075°11'0 0.0
2017-Mar-29 19:31N 39°53' W 075°11'0 0.0
2017-Mar-29 18:31N 39°53' W 075°11'0 0.0
2017-Mar-29 17:31N 39°53' W 075°11'0 0.0
2017-Mar-29 16:33N 39°53' W 075°11'0 0.1
2017-Mar-29 15:33N 39°53' W 075°11'0 0.1
2017-Mar-29 14:31N 39°53' W 075°11'0 0.0
2017-Mar-29 13:31N 39°53' W 075°11'0 0.0
2017-Mar-29 12:31N 39°53' W 075°11'2 2.4
2017-Mar-29 11:32N 39°54' W 075°08'0 0.0
2017-Mar-29 10:32N 39°54' W 075°08'0 0.0
2017-Mar-29 09:29N 39°54' W 075°08'0 0.0
2017-Mar-29 08:32N 39°54' W 075°08'0 0.0
2017-Mar-29 07:32N 39°54' W 075°08'0 0.0
2017-Mar-29 06:32N 39°54' W 075°08'0 0.0
2017-Mar-29 05:32N 39°54' W 075°08'0 0.0
2017-Mar-29 04:32N 39°54' W 075°08'0 0.0
2017-Mar-29 03:32N 39°54' W 075°08'0 0.0
2017-Mar-29 02:32N 39°54' W 075°08'0 0.0
2017-Mar-29 01:32N 39°54' W 075°08'2 2.0
2017-Mar-29 00:33N 39°53' W 075°10'3 3.0
2017-Mar-28 23:31N 39°51' W 075°14'0 0.0
2017-Mar-28 22:31N 39°51' W 075°14'0 0.0
2017-Mar-28 21:31N 39°51' W 075°14'0 0.0
2017-Mar-28 20:31N 39°51' W 075°14'0 0.0
2017-Mar-28 19:31N 39°51' W 075°14'0 0.0
2017-Mar-28 18:31N 39°51' W 075°14'0 0.0
2017-Mar-28 17:31N 39°51' W 075°14'0 0.0
2017-Mar-28 16:31N 39°51' W 075°14'0 0.0
2017-Mar-28 15:31N 39°51' W 075°14'0 0.0
2017-Mar-28 14:31N 39°51' W 075°14'0 0.0
2017-Mar-28 13:31N 39°51' W 075°14'0 0.0
2017-Mar-28 12:31N 39°51' W 075°14'0 0.0
2017-Mar-28 11:31N 39°51' W 075°14'0 0.0
2017-Mar-28 10:31N 39°51' W 075°14'0 0.0
2017-Mar-28 09:31N 39°51' W 075°14'0 0.0
2017-Mar-28 08:31N 39°51' W 075°14'0 0.0
2017-Mar-28 07:31N 39°51' W 075°14'0 0.3
2017-Mar-28 06:33N 39°52' W 075°14'1 0.7
2017-Mar-28 05:31N 39°52' W 075°13'0 0.0
2017-Mar-28 04:31N 39°52' W 075°13'0 0.0
2017-Mar-28 03:31N 39°52' W 075°13'1 0.9
2017-Mar-28 02:32N 39°51' W 075°14'4 3.9
2017-Mar-28 01:33N 39°53' W 075°09'1 1.3
2017-Mar-28 00:31N 39°54' W 075°08'0 0.0
2017-Mar-27 23:31N 39°54' W 075°08'0 0.0
2017-Mar-27 22:31N 39°54' W 075°08'0 0.0
2017-Mar-27 21:31N 39°54' W 075°08'0 0.0
2017-Mar-27 20:31N 39°54' W 075°08'0 0.0
2017-Mar-27 19:31N 39°54' W 075°08'0 0.0
2017-Mar-27 18:25N 39°54' W 075°08'0 0.0
2017-Mar-27 17:31N 39°54' W 075°08'0 0.0
2017-Mar-27 16:33N 39°54' W 075°08'0 0.0
2017-Mar-27 15:34N 39°54' W 075°08'1 1.4
2017-Mar-27 14:33N 39°53' W 075°09'4 3.7
2017-Mar-27 13:33N 39°51' W 075°14'0 0.0
2017-Mar-27 12:33N 39°51' W 075°14'0 0.0
2017-Mar-27 11:33N 39°51' W 075°14'0 0.0
2017-Mar-27 10:33N 39°51' W 075°14'0 0.0
2017-Mar-27 09:33N 39°51' W 075°14'0 0.0
2017-Mar-27 08:33N 39°51' W 075°14'0 0.0
2017-Mar-27 07:33N 39°51' W 075°14'0 0.0
2017-Mar-27 06:33N 39°51' W 075°14'0 0.0
2017-Mar-27 05:33N 39°51' W 075°14'0 0.0
2017-Mar-27 04:33N 39°51' W 075°14'0 0.0
2017-Mar-27 03:34N 39°51' W 075°14'0 0.0
2017-Mar-27 02:34N 39°51' W 075°14'0 0.0
2017-Mar-27 01:33N 39°51' W 075°14'7 6.8
2017-Mar-27 00:33N 39°50' W 075°22'9 8.7
2017-Mar-26 23:34N 39°43' W 075°30'8 7.8
2017-Mar-26 22:33N 39°36' W 075°34'3 2.8
2017-Mar-26 21:34N 39°34' W 075°35'7 7.3
2017-Mar-26 20:34N 39°32' W 075°44'6 6.3
2017-Mar-26 19:33N 39°32' W 075°52'7 6.7
2017-Mar-26 18:33N 39°27' W 075°59'7 6.7
2017-Mar-26 17:33N 39°23' W 076°06'31 6.8
2017-Mar-26 13:04N 38°56' W 076°24'  
2017-Mar-22 15:08N 39°24' W 076°02'2 4.2
2017-Mar-22 14:33N 39°26' W 076°00'1 1.5
2017-Mar-22 13:33N 39°27' W 075°59'8 8.4
2017-Mar-22 12:33N 39°32' W 075°50'6 5.7
2017-Mar-22 11:34N 39°33' W 075°43'7 7.4
2017-Mar-22 10:34N 39°34' W 075°33'5 4.8
2017-Mar-22 09:33N 39°39' W 075°33'7 6.6
2017-Mar-22 08:33N 39°45' W 075°29'8 7.7
2017-Mar-22 07:33N 39°50' W 075°22'6 6.4
2017-Mar-22 06:33N 39°51' W 075°14'0 0.0
2017-Mar-22 05:34N 39°51' W 075°14'0 0.0
2017-Mar-22 04:32N 39°51' W 075°14'0 0.0
2017-Mar-22 03:32N 39°51' W 075°14'0 0.0
2017-Mar-22 02:32N 39°51' W 075°14'0 0.0
2017-Mar-22 01:32N 39°51' W 075°14'0 0.0
2017-Mar-22 00:32N 39°51' W 075°14'0 0.0
2017-Mar-21 23:32N 39°51' W 075°14'0 0.0
2017-Mar-21 22:32N 39°51' W 075°14'0 0.0
2017-Mar-21 21:32N 39°51' W 075°14'0 0.0
2017-Mar-21 20:32N 39°51' W 075°14'0 0.0
2017-Mar-21 19:32N 39°51' W 075°14'  

Dump ship's entire track history